sensor_id;sensor_type;location;lat;lon;timestamp;temperature;humidity
26583;DHT22;14230;45.382;10.998;2023-01-13T00:02:13;5.30;99.90
26583;DHT22;14230;45.382;10.998;2023-01-13T00:04:43;5.40;99.90
26583;DHT22;14230;45.382;10.998;2023-01-13T00:07:15;5.40;99.90
26583;DHT22;14230;45.382;10.998;2023-01-13T00:09:45;5.50;99.90
26583;DHT22;14230;45.382;10.998;2023-01-13T00:12:15;5.40;99.90
26583;DHT22;14230;45.382;10.998;2023-01-13T00:14:45;5.40;99.90
26583;DHT22;14230;45.382;10.998;2023-01-13T00:17:14;5.40;99.90
26583;DHT22;14230;45.382;10.998;2023-01-13T00:19:43;5.40;99.90
26583;DHT22;14230;45.382;10.998;2023-01-13T00:22:14;5.30;99.90
26583;DHT22;14230;45.382;10.998;2023-01-13T00:24:44;5.30;99.90
26583;DHT22;14230;45.382;10.998;2023-01-13T00:27:13;5.30;99.90
26583;DHT22;14230;45.382;10.998;2023-01-13T00:29:43;5.30;99.90
26583;DHT22;14230;45.382;10.998;2023-01-13T00:32:13;5.30;99.90
26583;DHT22;14230;45.382;10.998;2023-01-13T00:34:42;5.30;99.90
26583;DHT22;14230;45.382;10.998;2023-01-13T00:37:11;5.30;99.90
26583;DHT22;14230;45.382;10.998;2023-01-13T00:39:42;5.40;99.90
26583;DHT22;14230;45.382;10.998;2023-01-13T00:42:16;5.40;99.90
26583;DHT22;14230;45.382;10.998;2023-01-13T00:45:07;5.30;99.90
26583;DHT22;14230;45.382;10.998;2023-01-13T00:47:40;5.40;99.90
26583;DHT22;14230;45.382;10.998;2023-01-13T00:50:10;5.40;99.90
26583;DHT22;14230;45.382;10.998;2023-01-13T00:52:40;5.50;99.90
26583;DHT22;14230;45.382;10.998;2023-01-13T00:55:10;5.50;99.90
26583;DHT22;14230;45.382;10.998;2023-01-13T00:57:39;5.50;99.90
26583;DHT22;14230;45.382;10.998;2023-01-13T01:00:09;5.50;99.90
26583;DHT22;14230;45.382;10.998;2023-01-13T01:02:39;5.40;99.90
26583;DHT22;14230;45.382;10.998;2023-01-13T01:05:10;5.40;99.90
26583;DHT22;14230;45.382;10.998;2023-01-13T01:07:40;5.50;99.90
26583;DHT22;14230;45.382;10.998;2023-01-13T01:10:10;5.40;99.90
26583;DHT22;14230;45.382;10.998;2023-01-13T01:12:40;5.40;99.90
26583;DHT22;14230;45.382;10.998;2023-01-13T01:15:10;5.50;99.90
26583;DHT22;14230;45.382;10.998;2023-01-13T01:17:41;5.40;99.90
26583;DHT22;14230;45.382;10.998;2023-01-13T01:20:10;5.50;99.90
26583;DHT22;14230;45.382;10.998;2023-01-13T01:22:40;5.50;99.90
26583;DHT22;14230;45.382;10.998;2023-01-13T01:25:10;5.50;99.90
26583;DHT22;14230;45.382;10.998;2023-01-13T01:27:39;5.60;99.90
26583;DHT22;14230;45.382;10.998;2023-01-13T01:30:09;5.50;99.90
26583;DHT22;14230;45.382;10.998;2023-01-13T01:32:38;5.50;99.90
26583;DHT22;14230;45.382;10.998;2023-01-13T01:35:18;5.40;99.90
26583;DHT22;14230;45.382;10.998;2023-01-13T01:38:12;5.40;99.90
26583;DHT22;14230;45.382;10.998;2023-01-13T01:41:20;5.40;99.90
26583;DHT22;14230;45.382;10.998;2023-01-13T01:51:01;5.40;99.90
26583;DHT22;14230;45.382;10.998;2023-01-13T01:53:47;5.40;99.90
26583;DHT22;14230;45.382;10.998;2023-01-13T01:56:42;5.40;99.90
26583;DHT22;14230;45.382;10.998;2023-01-13T01:59:45;5.30;99.90
26583;DHT22;14230;45.382;10.998;2023-01-13T02:02:40;5.30;99.90
26583;DHT22;14230;45.382;10.998;2023-01-13T02:05:45;5.20;99.90
26583;DHT22;14230;45.382;10.998;2023-01-13T02:08:16;5.20;99.90
26583;DHT22;14230;45.382;10.998;2023-01-13T02:10:49;5.10;99.90
26583;DHT22;14230;45.382;10.998;2023-01-13T02:13:40;5.10;99.90
26583;DHT22;14230;45.382;10.998;2023-01-13T02:16:30;5.10;99.90
26583;DHT22;14230;45.382;10.998;2023-01-13T02:22:59;5.10;99.90
26583;DHT22;14230;45.382;10.998;2023-01-13T02:29:59;5.00;99.90
26583;DHT22;14230;45.382;10.998;2023-01-13T02:39:28;5.00;99.90
26583;DHT22;14230;45.382;10.998;2023-01-13T02:46:12;4.90;99.90
26583;DHT22;14230;45.382;10.998;2023-01-13T02:49:04;4.90;99.90
26583;DHT22;14230;45.382;10.998;2023-01-13T02:51:36;4.90;99.90
26583;DHT22;14230;45.382;10.998;2023-01-13T02:54:38;4.90;99.90
26583;DHT22;14230;45.382;10.998;2023-01-13T02:58:06;5.00;99.90
26583;DHT22;14230;45.382;10.998;2023-01-13T03:00:39;5.00;99.90
26583;DHT22;14230;45.382;10.998;2023-01-13T03:03:23;5.00;99.90
26583;DHT22;14230;45.382;10.998;2023-01-13T03:06:31;5.00;99.90
26583;DHT22;14230;45.382;10.998;2023-01-13T03:09:54;5.00;99.90
26583;DHT22;14230;45.382;10.998;2023-01-13T03:17:40;5.00;99.90
26583;DHT22;14230;45.382;10.998;2023-01-13T03:20:26;5.00;99.90
26583;DHT22;14230;45.382;10.998;2023-01-13T03:23:32;5.00;99.90
26583;DHT22;14230;45.382;10.998;2023-01-13T03:26:59;4.90;99.90
26583;DHT22;14230;45.382;10.998;2023-01-13T03:29:40;5.00;99.90
26583;DHT22;14230;45.382;10.998;2023-01-13T03:32:57;4.90;99.90
26583;DHT22;14230;45.382;10.998;2023-01-13T03:35:35;4.80;99.90
26583;DHT22;14230;45.382;10.998;2023-01-13T03:38:53;4.80;99.90
26583;DHT22;14230;45.382;10.998;2023-01-13T03:42:13;4.80;99.90
26583;DHT22;14230;45.382;10.998;2023-01-13T03:45:18;4.80;99.90
26583;DHT22;14230;45.382;10.998;2023-01-13T03:47:54;4.70;99.90
26583;DHT22;14230;45.382;10.998;2023-01-13T03:50:51;4.70;99.90
26583;DHT22;14230;45.382;10.998;2023-01-13T03:53:37;4.70;99.90
26583;DHT22;14230;45.382;10.998;2023-01-13T03:56:21;4.70;99.90
26583;DHT22;14230;45.382;10.998;2023-01-13T03:58:53;4.60;99.90
26583;DHT22;14230;45.382;10.998;2023-01-13T04:01:31;4.60;99.90
26583;DHT22;14230;45.382;10.998;2023-01-13T04:04:14;4.70;99.90
26583;DHT22;14230;45.382;10.998;2023-01-13T04:09:53;4.70;99.90
26583;DHT22;14230;45.382;10.998;2023-01-13T04:12:31;4.70;99.90
26583;DHT22;14230;45.382;10.998;2023-01-13T04:15:23;4.70;99.90
26583;DHT22;14230;45.382;10.998;2023-01-13T04:17:53;4.70;99.90
26583;DHT22;14230;45.382;10.998;2023-01-13T04:20:28;4.80;99.90
26583;DHT22;14230;45.382;10.998;2023-01-13T04:22:56;4.80;99.90
26583;DHT22;14230;45.382;10.998;2023-01-13T04:25:24;4.80;99.90
26583;DHT22;14230;45.382;10.998;2023-01-13T04:27:51;4.90;99.90
26583;DHT22;14230;45.382;10.998;2023-01-13T04:30:19;4.80;99.90
26583;DHT22;14230;45.382;10.998;2023-01-13T04:32:47;4.80;99.90
26583;DHT22;14230;45.382;10.998;2023-01-13T04:35:15;4.80;99.90
26583;DHT22;14230;45.382;10.998;2023-01-13T04:37:43;4.80;99.90
26583;DHT22;14230;45.382;10.998;2023-01-13T04:40:11;4.80;99.90
26583;DHT22;14230;45.382;10.998;2023-01-13T04:42:39;4.70;99.90
26583;DHT22;14230;45.382;10.998;2023-01-13T04:45:22;4.70;99.90
26583;DHT22;14230;45.382;10.998;2023-01-13T04:47:49;4.70;99.90
26583;DHT22;14230;45.382;10.998;2023-01-13T04:50:18;4.70;99.90
26583;DHT22;14230;45.382;10.998;2023-01-13T04:52:46;4.70;99.90
26583;DHT22;14230;45.382;10.998;2023-01-13T04:55:15;4.70;99.90
26583;DHT22;14230;45.382;10.998;2023-01-13T04:57:44;4.80;99.90
26583;DHT22;14230;45.382;10.998;2023-01-13T05:00:14;4.80;99.90
26583;DHT22;14230;45.382;10.998;2023-01-13T05:02:45;4.80;99.90
26583;DHT22;14230;45.382;10.998;2023-01-13T05:05:16;4.90;99.90
26583;DHT22;14230;45.382;10.998;2023-01-13T05:07:44;4.90;99.90
26583;DHT22;14230;45.382;10.998;2023-01-13T05:10:12;4.90;99.90
26583;DHT22;14230;45.382;10.998;2023-01-13T05:12:40;5.00;99.90
26583;DHT22;14230;45.382;10.998;2023-01-13T05:15:27;5.00;99.90
26583;DHT22;14230;45.382;10.998;2023-01-13T05:18:14;5.00;99.90
26583;DHT22;14230;45.382;10.998;2023-01-13T05:20:42;4.90;99.90
26583;DHT22;14230;45.382;10.998;2023-01-13T05:23:10;4.90;99.90
26583;DHT22;14230;45.382;10.998;2023-01-13T05:25:58;4.90;99.90
26583;DHT22;14230;45.382;10.998;2023-01-13T05:28:29;4.80;99.90
26583;DHT22;14230;45.382;10.998;2023-01-13T05:30:58;4.80;99.90
26583;DHT22;14230;45.382;10.998;2023-01-13T05:33:26;4.80;99.90
26583;DHT22;14230;45.382;10.998;2023-01-13T05:35:54;4.80;99.90
26583;DHT22;14230;45.382;10.998;2023-01-13T05:38:22;4.80;99.90
26583;DHT22;14230;45.382;10.998;2023-01-13T05:40:50;4.80;99.90
26583;DHT22;14230;45.382;10.998;2023-01-13T05:43:36;4.80;99.90
26583;DHT22;14230;45.382;10.998;2023-01-13T05:46:07;4.80;99.90
26583;DHT22;14230;45.382;10.998;2023-01-13T05:51:08;4.90;99.90
26583;DHT22;14230;45.382;10.998;2023-01-13T05:53:36;4.80;99.90
26583;DHT22;14230;45.382;10.998;2023-01-13T05:56:05;4.70;99.90
26583;DHT22;14230;45.382;10.998;2023-01-13T05:58:33;4.70;99.90
26583;DHT22;14230;45.382;10.998;2023-01-13T06:01:04;4.70;99.90
26583;DHT22;14230;45.382;10.998;2023-01-13T06:03:32;4.80;99.90
26583;DHT22;14230;45.382;10.998;2023-01-13T06:06:00;4.80;99.90
26583;DHT22;14230;45.382;10.998;2023-01-13T06:08:36;4.80;99.90
26583;DHT22;14230;45.382;10.998;2023-01-13T06:11:07;4.70;99.90
26583;DHT22;14230;45.382;10.998;2023-01-13T06:13:34;4.60;99.90
26583;DHT22;14230;45.382;10.998;2023-01-13T06:16:05;4.50;99.90
26583;DHT22;14230;45.382;10.998;2023-01-13T06:18:32;4.60;99.90
26583;DHT22;14230;45.382;10.998;2023-01-13T06:21:00;4.60;99.90
26583;DHT22;14230;45.382;10.998;2023-01-13T06:23:28;4.70;99.90
26583;DHT22;14230;45.382;10.998;2023-01-13T06:26:13;4.70;99.90
26583;DHT22;14230;45.382;10.998;2023-01-13T06:28:42;4.80;99.90
26583;DHT22;14230;45.382;10.998;2023-01-13T06:31:10;4.80;99.90
26583;DHT22;14230;45.382;10.998;2023-01-13T06:33:40;4.80;99.90
26583;DHT22;14230;45.382;10.998;2023-01-13T06:36:14;4.80;99.90
26583;DHT22;14230;45.382;10.998;2023-01-13T06:38:45;4.70;99.90
26583;DHT22;14230;45.382;10.998;2023-01-13T06:41:14;4.80;99.90
26583;DHT22;14230;45.382;10.998;2023-01-13T06:43:42;4.80;99.90
26583;DHT22;14230;45.382;10.998;2023-01-13T06:46:10;4.80;99.90
26583;DHT22;14230;45.382;10.998;2023-01-13T06:48:41;4.80;99.90
26583;DHT22;14230;45.382;10.998;2023-01-13T06:51:11;4.80;99.90
26583;DHT22;14230;45.382;10.998;2023-01-13T06:53:42;4.80;99.90
26583;DHT22;14230;45.382;10.998;2023-01-13T06:56:17;4.80;99.90
26583;DHT22;14230;45.382;10.998;2023-01-13T06:58:48;4.80;99.90
26583;DHT22;14230;45.382;10.998;2023-01-13T07:01:18;4.80;99.90
26583;DHT22;14230;45.382;10.998;2023-01-13T07:03:50;4.80;99.90
26583;DHT22;14230;45.382;10.998;2023-01-13T07:06:20;4.90;99.90
26583;DHT22;14230;45.382;10.998;2023-01-13T07:08:51;4.80;99.90
26583;DHT22;14230;45.382;10.998;2023-01-13T07:11:21;4.70;99.90
26583;DHT22;14230;45.382;10.998;2023-01-13T07:13:54;4.80;99.90
26583;DHT22;14230;45.382;10.998;2023-01-13T07:17:03;4.70;99.90
26583;DHT22;14230;45.382;10.998;2023-01-13T07:19:33;4.80;99.90
26583;DHT22;14230;45.382;10.998;2023-01-13T07:22:02;4.80;99.90
26583;DHT22;14230;45.382;10.998;2023-01-13T07:24:32;5.10;99.90
26583;DHT22;14230;45.382;10.998;2023-01-13T07:27:02;5.10;99.90
26583;DHT22;14230;45.382;10.998;2023-01-13T07:29:31;5.10;99.90
26583;DHT22;14230;45.382;10.998;2023-01-13T07:32:15;5.00;99.90
26583;DHT22;14230;45.382;10.998;2023-01-13T07:34:48;5.00;99.90
26583;DHT22;14230;45.382;10.998;2023-01-13T07:37:16;5.10;99.90
26583;DHT22;14230;45.382;10.998;2023-01-13T07:39:47;5.10;99.90
26583;DHT22;14230;45.382;10.998;2023-01-13T07:42:18;5.10;99.90
26583;DHT22;14230;45.382;10.998;2023-01-13T07:45:21;5.20;99.90
26583;DHT22;14230;45.382;10.998;2023-01-13T07:47:59;5.30;99.90
26583;DHT22;14230;45.382;10.998;2023-01-13T07:50:30;5.40;99.90
26583;DHT22;14230;45.382;10.998;2023-01-13T07:56:20;5.40;99.90
26583;DHT22;14230;45.382;10.998;2023-01-13T07:58:51;5.40;99.90
26583;DHT22;14230;45.382;10.998;2023-01-13T08:01:23;5.50;99.90
26583;DHT22;14230;45.382;10.998;2023-01-13T08:04:05;5.50;99.90
26583;DHT22;14230;45.382;10.998;2023-01-13T08:06:39;5.50;99.90
26583;DHT22;14230;45.382;10.998;2023-01-13T08:09:10;5.50;99.90
26583;DHT22;14230;45.382;10.998;2023-01-13T08:11:40;5.60;99.90
26583;DHT22;14230;45.382;10.998;2023-01-13T08:14:10;5.60;99.90
26583;DHT22;14230;45.382;10.998;2023-01-13T08:16:40;5.70;99.90
26583;DHT22;14230;45.382;10.998;2023-01-13T08:19:10;5.80;99.90
26583;DHT22;14230;45.382;10.998;2023-01-13T08:21:41;5.90;99.90
26583;DHT22;14230;45.382;10.998;2023-01-13T08:24:10;6.00;99.90
26583;DHT22;14230;45.382;10.998;2023-01-13T08:26:40;6.10;99.90
26583;DHT22;14230;45.382;10.998;2023-01-13T08:29:10;6.10;99.90
26583;DHT22;14230;45.382;10.998;2023-01-13T08:31:43;6.20;99.90
26583;DHT22;14230;45.382;10.998;2023-01-13T08:34:15;6.30;99.90
26583;DHT22;14230;45.382;10.998;2023-01-13T08:36:48;6.40;99.90
26583;DHT22;14230;45.382;10.998;2023-01-13T08:39:19;6.40;99.90
26583;DHT22;14230;45.382;10.998;2023-01-13T08:41:48;6.50;99.90
26583;DHT22;14230;45.382;10.998;2023-01-13T08:44:25;6.60;99.90
26583;DHT22;14230;45.382;10.998;2023-01-13T08:46:55;6.60;99.90
26583;DHT22;14230;45.382;10.998;2023-01-13T08:49:25;6.60;99.90
26583;DHT22;14230;45.382;10.998;2023-01-13T08:51:55;6.60;99.90
26583;DHT22;14230;45.382;10.998;2023-01-13T08:54:27;6.70;99.90
26583;DHT22;14230;45.382;10.998;2023-01-13T08:57:01;6.80;99.90
26583;DHT22;14230;45.382;10.998;2023-01-13T09:00:03;6.90;99.90
26583;DHT22;14230;45.382;10.998;2023-01-13T09:02:34;7.10;99.90
26583;DHT22;14230;45.382;10.998;2023-01-13T09:05:07;7.10;99.90
26583;DHT22;14230;45.382;10.998;2023-01-13T09:07:43;7.20;99.90
26583;DHT22;14230;45.382;10.998;2023-01-13T09:10:57;7.30;99.90
26583;DHT22;14230;45.382;10.998;2023-01-13T09:13:30;7.40;99.90
26583;DHT22;14230;45.382;10.998;2023-01-13T09:16:03;7.50;99.90
26583;DHT22;14230;45.382;10.998;2023-01-13T09:18:33;7.50;99.90
26583;DHT22;14230;45.382;10.998;2023-01-13T09:21:10;7.60;99.90
26583;DHT22;14230;45.382;10.998;2023-01-13T09:27:00;8.10;99.90
26583;DHT22;14230;45.382;10.998;2023-01-13T09:29:30;8.30;99.90
26583;DHT22;14230;45.382;10.998;2023-01-13T09:32:00;8.30;99.90
26583;DHT22;14230;45.382;10.998;2023-01-13T09:34:34;8.20;99.90
26583;DHT22;14230;45.382;10.998;2023-01-13T09:37:39;8.30;99.90
26583;DHT22;14230;45.382;10.998;2023-01-13T09:40:18;8.20;99.90
26583;DHT22;14230;45.382;10.998;2023-01-13T09:42:56;8.30;99.90
26583;DHT22;14230;45.382;10.998;2023-01-13T09:46:16;8.30;99.90
26583;DHT22;14230;45.382;10.998;2023-01-13T09:49:06;8.40;99.90
26583;DHT22;14230;45.382;10.998;2023-01-13T09:51:44;8.50;99.90
26583;DHT22;14230;45.382;10.998;2023-01-13T09:54:42;8.40;99.90
26583;DHT22;14230;45.382;10.998;2023-01-13T09:57:15;8.40;99.90
26583;DHT22;14230;45.382;10.998;2023-01-13T09:59:46;8.40;99.90
26583;DHT22;14230;45.382;10.998;2023-01-13T10:02:35;8.40;99.90
26583;DHT22;14230;45.382;10.998;2023-01-13T10:05:33;8.30;99.90
26583;DHT22;14230;45.382;10.998;2023-01-13T10:08:11;8.30;99.90
26583;DHT22;14230;45.382;10.998;2023-01-13T10:10:49;8.30;99.90
26583;DHT22;14230;45.382;10.998;2023-01-13T10:13:30;8.20;99.90
26583;DHT22;14230;45.382;10.998;2023-01-13T10:16:22;8.30;99.90
26583;DHT22;14230;45.382;10.998;2023-01-13T10:24:42;8.50;99.90
26583;DHT22;14230;45.382;10.998;2023-01-13T10:27:38;8.60;99.90
26583;DHT22;14230;45.382;10.998;2023-01-13T10:30:23;8.70;99.90
26583;DHT22;14230;45.382;10.998;2023-01-13T10:33:11;8.70;99.90
26583;DHT22;14230;45.382;10.998;2023-01-13T10:35:55;8.80;99.90
26583;DHT22;14230;45.382;10.998;2023-01-13T10:38:51;8.70;99.90
26583;DHT22;14230;45.382;10.998;2023-01-13T10:41:27;8.70;99.90
26583;DHT22;14230;45.382;10.998;2023-01-13T10:44:22;8.70;99.90
26583;DHT22;14230;45.382;10.998;2023-01-13T10:46:57;8.60;99.90
26583;DHT22;14230;45.382;10.998;2023-01-13T10:49:37;8.60;99.90
26583;DHT22;14230;45.382;10.998;2023-01-13T10:53:01;8.50;99.90
26583;DHT22;14230;45.382;10.998;2023-01-13T10:55:33;8.50;99.90
26583;DHT22;14230;45.382;10.998;2023-01-13T10:58:13;8.50;99.90
26583;DHT22;14230;45.382;10.998;2023-01-13T11:00:43;8.40;99.90
26583;DHT22;14230;45.382;10.998;2023-01-13T11:03:20;8.40;99.90
26583;DHT22;14230;45.382;10.998;2023-01-13T11:05:55;8.40;99.90
26583;DHT22;14230;45.382;10.998;2023-01-13T11:08:27;8.40;99.90
26583;DHT22;14230;45.382;10.998;2023-01-13T11:10:58;8.40;99.90
26583;DHT22;14230;45.382;10.998;2023-01-13T11:13:38;8.50;99.90
26583;DHT22;14230;45.382;10.998;2023-01-13T11:16:35;8.50;99.90
26583;DHT22;14230;45.382;10.998;2023-01-13T11:19:23;8.60;99.90
26583;DHT22;14230;45.382;10.998;2023-01-13T11:22:53;8.70;99.90
26583;DHT22;14230;45.382;10.998;2023-01-13T11:25:42;8.70;99.90
26583;DHT22;14230;45.382;10.998;2023-01-13T11:28:39;8.70;99.90
26583;DHT22;14230;45.382;10.998;2023-01-13T11:31:29;8.60;99.90
26583;DHT22;14230;45.382;10.998;2023-01-13T11:36:52;8.70;99.90
26583;DHT22;14230;45.382;10.998;2023-01-13T11:42:32;9.00;99.90
26583;DHT22;14230;45.382;10.998;2023-01-13T11:45:20;9.00;99.90
26583;DHT22;14230;45.382;10.998;2023-01-13T11:48:27;9.00;99.90
26583;DHT22;14230;45.382;10.998;2023-01-13T11:51:06;9.20;99.90
26583;DHT22;14230;45.382;10.998;2023-01-13T12:03:13;9.30;99.90
26583;DHT22;14230;45.382;10.998;2023-01-13T12:06:00;9.40;99.90
26583;DHT22;14230;45.382;10.998;2023-01-13T12:08:54;9.50;99.90
26583;DHT22;14230;45.382;10.998;2023-01-13T12:11:58;9.50;99.90
26583;DHT22;14230;45.382;10.998;2023-01-13T12:23:35;9.40;99.90
26583;DHT22;14230;45.382;10.998;2023-01-13T12:26:12;9.40;99.90
26583;DHT22;14230;45.382;10.998;2023-01-13T12:31:24;9.60;99.90
26583;DHT22;14230;45.382;10.998;2023-01-13T12:34:23;9.60;99.90
26583;DHT22;14230;45.382;10.998;2023-01-13T12:37:18;9.70;99.90
26583;DHT22;14230;45.382;10.998;2023-01-13T12:43:22;9.80;99.90
26583;DHT22;14230;45.382;10.998;2023-01-13T12:51:58;9.80;99.90
26583;DHT22;14230;45.382;10.998;2023-01-13T12:57:00;9.90;99.90
26583;DHT22;14230;45.382;10.998;2023-01-13T12:59:32;10.00;99.90
26583;DHT22;14230;45.382;10.998;2023-01-13T13:04:57;9.90;99.90
26583;DHT22;14230;45.382;10.998;2023-01-13T13:07:45;9.90;99.90
26583;DHT22;14230;45.382;10.998;2023-01-13T13:13:04;9.90;99.90
26583;DHT22;14230;45.382;10.998;2023-01-13T13:22:50;10.20;99.90
26583;DHT22;14230;45.382;10.998;2023-01-13T13:25:24;10.30;99.90
26583;DHT22;14230;45.382;10.998;2023-01-13T13:28:12;10.20;99.90
26583;DHT22;14230;45.382;10.998;2023-01-13T13:31:55;10.20;99.90
26583;DHT22;14230;45.382;10.998;2023-01-13T13:34:57;10.20;99.90
26583;DHT22;14230;45.382;10.998;2023-01-13T13:40:44;10.10;99.90
26583;DHT22;14230;45.382;10.998;2023-01-13T13:43:52;10.20;99.90
26583;DHT22;14230;45.382;10.998;2023-01-13T13:46:46;10.20;99.90
26583;DHT22;14230;45.382;10.998;2023-01-13T13:49:18;10.20;99.90
26583;DHT22;14230;45.382;10.998;2023-01-13T13:51:57;10.20;99.90
26583;DHT22;14230;45.382;10.998;2023-01-13T13:54:29;10.20;99.90
26583;DHT22;14230;45.382;10.998;2023-01-13T13:57:00;10.10;99.90
26583;DHT22;14230;45.382;10.998;2023-01-13T13:59:29;10.20;99.90
26583;DHT22;14230;45.382;10.998;2023-01-13T14:02:10;10.20;99.90
26583;DHT22;14230;45.382;10.998;2023-01-13T14:04:46;10.20;99.90
26583;DHT22;14230;45.382;10.998;2023-01-13T14:07:20;10.20;99.90
26583;DHT22;14230;45.382;10.998;2023-01-13T14:09:52;10.20;99.90
26583;DHT22;14230;45.382;10.998;2023-01-13T14:12:24;10.20;99.90
26583;DHT22;14230;45.382;10.998;2023-01-13T14:14:53;10.20;99.90
26583;DHT22;14230;45.382;10.998;2023-01-13T14:17:26;10.20;99.90
26583;DHT22;14230;45.382;10.998;2023-01-13T14:20:06;10.30;99.90
26583;DHT22;14230;45.382;10.998;2023-01-13T14:22:51;10.40;99.90
26583;DHT22;14230;45.382;10.998;2023-01-13T14:25:30;10.40;99.90
26583;DHT22;14230;45.382;10.998;2023-01-13T14:30:43;10.60;99.90
26583;DHT22;14230;45.382;10.998;2023-01-13T14:33:16;10.80;99.90
26583;DHT22;14230;45.382;10.998;2023-01-13T14:41:43;11.20;99.90
26583;DHT22;14230;45.382;10.998;2023-01-13T14:44:27;11.20;99.90
26583;DHT22;14230;45.382;10.998;2023-01-13T14:50:18;11.10;99.90
26583;DHT22;14230;45.382;10.998;2023-01-13T14:52:52;10.90;99.90
26583;DHT22;14230;45.382;10.998;2023-01-13T14:55:35;10.70;99.90
26583;DHT22;14230;45.382;10.998;2023-01-13T15:00:51;10.20;99.90
26583;DHT22;14230;45.382;10.998;2023-01-13T15:03:21;10.00;99.90
26583;DHT22;14230;45.382;10.998;2023-01-13T15:05:52;9.80;99.90
26583;DHT22;14230;45.382;10.998;2023-01-13T15:08:25;9.70;99.90
26583;DHT22;14230;45.382;10.998;2023-01-13T15:11:02;9.50;99.90
26583;DHT22;14230;45.382;10.998;2023-01-13T15:13:44;9.40;99.90
26583;DHT22;14230;45.382;10.998;2023-01-13T15:16:22;9.30;99.90
26583;DHT22;14230;45.382;10.998;2023-01-13T15:18:54;9.20;99.90
26583;DHT22;14230;45.382;10.998;2023-01-13T15:21:23;9.10;99.90
26583;DHT22;14230;45.382;10.998;2023-01-13T15:23:54;9.00;99.90
26583;DHT22;14230;45.382;10.998;2023-01-13T15:26:26;8.90;99.90
26583;DHT22;14230;45.382;10.998;2023-01-13T15:28:57;8.80;99.90
26583;DHT22;14230;45.382;10.998;2023-01-13T15:31:27;8.70;99.90
26583;DHT22;14230;45.382;10.998;2023-01-13T15:33:58;8.60;99.90
26583;DHT22;14230;45.382;10.998;2023-01-13T15:36:30;8.50;99.90
26583;DHT22;14230;45.382;10.998;2023-01-13T15:39:23;8.40;99.90
26583;DHT22;14230;45.382;10.998;2023-01-13T15:41:55;8.40;99.90
26583;DHT22;14230;45.382;10.998;2023-01-13T15:44:46;8.30;99.90
26583;DHT22;14230;45.382;10.998;2023-01-13T15:47:35;8.20;99.90
26583;DHT22;14230;45.382;10.998;2023-01-13T15:50:05;8.00;99.90
26583;DHT22;14230;45.382;10.998;2023-01-13T15:52:35;8.00;99.90
26583;DHT22;14230;45.382;10.998;2023-01-13T15:55:04;7.80;99.90
26583;DHT22;14230;45.382;10.998;2023-01-13T15:57:36;7.70;99.90
26583;DHT22;14230;45.382;10.998;2023-01-13T16:00:18;7.70;99.90
26583;DHT22;14230;45.382;10.998;2023-01-13T16:02:49;7.60;99.90
26583;DHT22;14230;45.382;10.998;2023-01-13T16:05:21;7.50;99.90
26583;DHT22;14230;45.382;10.998;2023-01-13T16:07:59;7.40;99.90
26583;DHT22;14230;45.382;10.998;2023-01-13T16:10:30;7.40;99.90
26583;DHT22;14230;45.382;10.998;2023-01-13T16:13:03;7.30;99.90
26583;DHT22;14230;45.382;10.998;2023-01-13T16:15:34;7.20;99.90
26583;DHT22;14230;45.382;10.998;2023-01-13T16:18:04;7.20;99.90
26583;DHT22;14230;45.382;10.998;2023-01-13T16:20:37;7.10;99.90
26583;DHT22;14230;45.382;10.998;2023-01-13T16:23:06;7.00;99.90
26583;DHT22;14230;45.382;10.998;2023-01-13T16:25:40;6.90;99.90
26583;DHT22;14230;45.382;10.998;2023-01-13T16:28:22;6.90;99.90
26583;DHT22;14230;45.382;10.998;2023-01-13T16:30:52;6.90;99.90
26583;DHT22;14230;45.382;10.998;2023-01-13T16:33:26;6.90;99.90
26583;DHT22;14230;45.382;10.998;2023-01-13T16:35:56;6.80;99.90
26583;DHT22;14230;45.382;10.998;2023-01-13T16:38:43;6.70;99.90
26583;DHT22;14230;45.382;10.998;2023-01-13T16:41:14;6.70;99.90
26583;DHT22;14230;45.382;10.998;2023-01-13T16:43:44;6.70;99.90
26583;DHT22;14230;45.382;10.998;2023-01-13T16:46:25;6.60;99.90
26583;DHT22;14230;45.382;10.998;2023-01-13T16:49:02;6.60;99.90
26583;DHT22;14230;45.382;10.998;2023-01-13T16:51:32;6.50;99.90
26583;DHT22;14230;45.382;10.998;2023-01-13T16:54:02;6.40;99.90
26583;DHT22;14230;45.382;10.998;2023-01-13T16:56:34;6.40;99.90
26583;DHT22;14230;45.382;10.998;2023-01-13T16:59:12;6.30;99.90
26583;DHT22;14230;45.382;10.998;2023-01-13T17:01:44;6.30;99.90
26583;DHT22;14230;45.382;10.998;2023-01-13T17:04:17;6.30;99.90
26583;DHT22;14230;45.382;10.998;2023-01-13T17:06:54;6.30;99.90
26583;DHT22;14230;45.382;10.998;2023-01-13T17:09:26;6.30;99.90
26583;DHT22;14230;45.382;10.998;2023-01-13T17:11:57;6.30;99.90
26583;DHT22;14230;45.382;10.998;2023-01-13T17:14:27;6.20;99.90
26583;DHT22;14230;45.382;10.998;2023-01-13T17:16:56;6.20;99.90
26583;DHT22;14230;45.382;10.998;2023-01-13T17:19:26;6.10;99.90
26583;DHT22;14230;45.382;10.998;2023-01-13T17:22:02;6.00;99.90
26583;DHT22;14230;45.382;10.998;2023-01-13T17:24:35;6.10;99.90
26583;DHT22;14230;45.382;10.998;2023-01-13T17:27:09;6.10;99.90
26583;DHT22;14230;45.382;10.998;2023-01-13T17:29:40;6.10;99.90
26583;DHT22;14230;45.382;10.998;2023-01-13T17:32:34;6.10;99.90
26583;DHT22;14230;45.382;10.998;2023-01-13T17:35:06;6.00;99.90
26583;DHT22;14230;45.382;10.998;2023-01-13T17:37:36;5.90;99.90
26583;DHT22;14230;45.382;10.998;2023-01-13T17:40:09;6.00;99.90
26583;DHT22;14230;45.382;10.998;2023-01-13T17:42:41;6.10;99.90
26583;DHT22;14230;45.382;10.998;2023-01-13T17:50:46;6.00;99.90
26583;DHT22;14230;45.382;10.998;2023-01-13T17:58:38;5.90;99.90
26583;DHT22;14230;45.382;10.998;2023-01-13T18:06:58;6.00;99.90
26583;DHT22;14230;45.382;10.998;2023-01-13T18:10:59;5.80;99.90
26583;DHT22;14230;45.382;10.998;2023-01-13T18:15:15;5.80;99.90
26583;DHT22;14230;45.382;10.998;2023-01-13T18:19:29;5.70;99.90
26583;DHT22;14230;45.382;10.998;2023-01-13T18:23:07;5.80;99.90
26583;DHT22;14230;45.382;10.998;2023-01-13T18:46:21;5.60;99.90
26583;DHT22;14230;45.382;10.998;2023-01-13T18:54:05;5.50;99.90
26583;DHT22;14230;45.382;10.998;2023-01-13T19:01:03;5.40;99.90
26583;DHT22;14230;45.382;10.998;2023-01-13T19:03:32;5.20;99.90
26583;DHT22;14230;45.382;10.998;2023-01-13T19:06:01;5.20;99.90
26583;DHT22;14230;45.382;10.998;2023-01-13T19:08:31;5.20;99.90
26583;DHT22;14230;45.382;10.998;2023-01-13T19:11:05;5.10;99.90
26583;DHT22;14230;45.382;10.998;2023-01-13T19:13:36;5.10;99.90
26583;DHT22;14230;45.382;10.998;2023-01-13T19:16:06;5.10;99.90
26583;DHT22;14230;45.382;10.998;2023-01-13T19:18:35;5.10;99.90
26583;DHT22;14230;45.382;10.998;2023-01-13T19:21:04;5.00;99.90
26583;DHT22;14230;45.382;10.998;2023-01-13T19:23:32;5.00;99.90
26583;DHT22;14230;45.382;10.998;2023-01-13T19:26:01;5.00;99.90